createdAt,value
2022-09-23T00:01:26.951Z,102121.89
2022-09-23T00:03:55.626Z,102124.10
2022-09-23T00:06:24.624Z,102121.95
2022-09-23T00:08:52.918Z,102122.39
2022-09-23T00:11:23.831Z,102119.02
2022-09-23T00:13:55.344Z,102120.14
2022-09-23T00:16:26.084Z,102118.79
2022-09-23T00:18:54.597Z,102120.25
2022-09-23T00:21:23.380Z,102120.17
2022-09-23T00:23:51.914Z,102118.71
2022-09-23T00:26:22.255Z,102115.87
2022-09-23T00:28:51.334Z,102113.05
2022-09-23T00:31:26.249Z,102106.52
2022-09-23T00:34:00.240Z,102106.95
2022-09-23T00:36:29.940Z,102106.88
2022-09-23T00:38:58.359Z,102106.45
2022-09-23T00:41:27.712Z,102105.54
2022-09-23T00:44:00.720Z,102105.83
2022-09-23T00:46:39.069Z,102104.18
2022-09-23T00:49:25.076Z,102104.28
2022-09-23T00:52:00.954Z,102107.18
2022-09-23T00:54:30.258Z,102111.43
2022-09-23T00:57:00.199Z,102107.04
2022-09-23T00:59:29.268Z,102106.77
2022-09-23T01:02:00.514Z,102102.89
2022-09-23T01:04:30.316Z,102100.00
2022-09-23T01:07:10.517Z,102097.33
2022-09-23T01:09:38.483Z,102096.56
2022-09-23T01:12:24.682Z,102095.45
2022-09-23T01:15:28.854Z,102093.46
2022-09-23T01:18:17.939Z,102092.70
2022-09-23T01:21:16.917Z,102087.96
2022-09-23T01:24:09.159Z,102087.23
2022-09-23T01:26:40.127Z,102085.63
2022-09-23T01:29:36.560Z,102088.42
2022-09-23T01:32:26.462Z,102088.95
2022-09-23T01:35:24.892Z,102090.11
2022-09-23T01:38:17.534Z,102091.13
2022-09-23T01:40:48.613Z,102087.80
2022-09-23T01:43:21.088Z,102087.95
2022-09-23T01:45:56.507Z,102080.78
2022-09-23T01:48:33.107Z,102078.10
2022-09-23T01:51:17.312Z,102076.14
2022-09-23T01:54:18.578Z,102075.07
2022-09-23T01:56:53.082Z,102076.23
2022-09-23T01:59:37.127Z,102075.70
2022-09-23T02:02:31.238Z,102078.04
2022-09-23T02:05:14.490Z,102075.02
2022-09-23T02:08:07.282Z,102077.44
2022-09-23T02:10:42.321Z,102079.16
2022-09-23T02:13:18.887Z,102080.02
2022-09-23T02:15:51.256Z,102077.45
2022-09-23T02:18:38.342Z,102078.66
2022-09-23T02:21:09.725Z,102080.38
2022-09-23T02:23:48.544Z,102082.08
2022-09-23T02:26:48.944Z,102084.80
2022-09-23T02:29:22.497Z,102080.07
2022-09-23T02:31:59.267Z,102081.94
2022-09-23T02:34:53.019Z,102080.50
2022-09-23T02:37:47.785Z,102080.25
2022-09-23T02:40:31.685Z,102077.27
2022-09-23T02:43:12.843Z,102080.50
2022-09-23T02:45:41.012Z,102084.09
2022-09-23T02:48:14.915Z,102081.97
2022-09-23T02:50:43.002Z,102082.61
2022-09-23T02:53:11.247Z,102082.73
2022-09-23T02:55:39.612Z,102083.22
2022-09-23T02:58:07.861Z,102083.02
2022-09-23T03:01:07.671Z,102083.16
2022-09-23T03:03:41.388Z,102079.14
2022-09-23T03:06:26.812Z,102082.05
2022-09-23T03:09:13.333Z,102076.68
2022-09-23T03:11:48.753Z,102074.83
2022-09-23T03:14:44.932Z,102077.13
2022-09-23T03:17:25.421Z,102073.05
2022-09-23T03:20:03.344Z,102067.73
2022-09-23T03:22:40.097Z,102061.77
2022-09-23T03:25:15.565Z,102065.70
2022-09-23T03:27:45.734Z,102066.30
2022-09-23T03:30:14.211Z,102060.17
2022-09-23T03:32:45.596Z,102056.82
2022-09-23T03:35:14.733Z,102053.13
2022-09-23T03:37:47.902Z,102054.08
2022-09-23T03:40:19.607Z,102049.89
2022-09-23T03:42:50.794Z,102046.38
2022-09-23T03:45:23.517Z,102046.52
2022-09-23T03:47:51.544Z,102043.31
2022-09-23T03:50:21.070Z,102044.45
2022-09-23T03:52:50.759Z,102039.09
2022-09-23T03:55:20.083Z,102043.27
2022-09-23T03:57:48.063Z,102039.14
2022-09-23T04:00:16.400Z,102038.79
2022-09-23T04:02:44.562Z,102032.85
2022-09-23T04:05:13.599Z,102035.62
2022-09-23T04:07:41.607Z,102035.94
2022-09-23T04:10:10.720Z,102035.40
2022-09-23T04:12:38.738Z,102031.21
2022-09-23T04:15:07.447Z,102035.90
2022-09-23T04:17:35.416Z,102036.21
2022-09-23T04:20:04.042Z,102035.52
2022-09-23T04:22:34.099Z,102033.95
2022-09-23T04:25:02.464Z,102033.40
2022-09-23T04:27:34.203Z,102031.14
2022-09-23T04:30:06.466Z,102031.46
2022-09-23T04:32:35.349Z,102028.67
2022-09-23T04:35:03.942Z,102025.75
2022-09-23T04:37:32.010Z,102024.38
2022-09-23T04:40:00.181Z,102025.23
2022-09-23T04:42:30.243Z,102026.44
2022-09-23T04:45:06.765Z,102024.14
2022-09-23T04:47:34.668Z,102029.36
2022-09-23T04:50:02.798Z,102025.92
2022-09-23T04:52:31.487Z,102027.16
2022-09-23T04:54:59.431Z,102026.67
2022-09-23T04:57:27.421Z,102028.15
2022-09-23T04:59:57.002Z,102032.42
2022-09-23T05:02:25.644Z,102033.45
2022-09-23T05:04:53.891Z,102037.29
2022-09-23T05:07:22.069Z,102029.85
2022-09-23T05:09:50.033Z,102029.34
2022-09-23T05:12:18.004Z,102026.17
2022-09-23T05:14:45.925Z,102027.73
2022-09-23T05:17:14.957Z,102029.71
2022-09-23T05:19:42.924Z,102030.19
2022-09-23T05:22:10.895Z,102031.86
2022-09-23T05:24:38.793Z,102029.70
2022-09-23T05:27:08.066Z,102027.98
2022-09-23T05:29:36.436Z,102028.39
2022-09-23T05:32:04.409Z,102028.38
2022-09-23T05:34:32.587Z,102030.06
2022-09-23T05:37:00.544Z,102031.16
2022-09-23T05:39:29.143Z,102029.21
2022-09-23T05:41:57.823Z,102029.40
2022-09-23T05:44:26.088Z,102029.45
2022-09-23T05:46:54.148Z,102028.44
2022-09-23T05:49:33.055Z,102028.63
2022-09-23T05:52:10.681Z,102029.55
2022-09-23T05:54:38.643Z,102027.60
2022-09-23T05:57:06.635Z,102032.44
2022-09-23T05:59:34.906Z,102031.31
2022-09-23T06:02:03.052Z,102034.30
2022-09-23T06:04:31.306Z,102032.27
2022-09-23T06:07:03.067Z,102034.92
2022-09-23T06:09:36.150Z,102031.41
2022-09-23T06:12:06.567Z,102030.19
2022-09-23T06:14:34.684Z,102028.33
2022-09-23T06:17:02.761Z,102028.77
2022-09-23T06:19:30.676Z,102027.27
2022-09-23T06:21:58.685Z,102028.52
2022-09-23T06:24:31.111Z,102026.95
2022-09-23T06:27:01.004Z,102027.86
2022-09-23T06:29:31.001Z,102029.08
2022-09-23T06:31:59.855Z,102029.25
2022-09-23T06:34:28.034Z,102027.01
2022-09-23T06:36:56.017Z,102032.42
2022-09-23T06:39:24.101Z,102032.13
2022-09-23T06:41:52.071Z,102029.55
2022-09-23T06:44:20.017Z,102024.00
2022-09-23T06:46:48.155Z,102021.93
2022-09-23T06:49:16.177Z,102022.26
2022-09-23T06:51:44.133Z,102018.77
2022-09-23T06:54:12.137Z,102011.61
2022-09-23T06:56:40.584Z,102013.11
2022-09-23T06:59:13.156Z,102012.86
2022-09-23T07:01:41.830Z,102011.42
2022-09-23T07:04:10.896Z,102004.58
2022-09-23T07:06:39.746Z,102002.98
2022-09-23T07:09:09.063Z,102007.31
2022-09-23T07:11:37.880Z,102004.64
2022-09-23T07:14:06.393Z,102002.98
2022-09-23T07:16:34.470Z,102008.13
2022-09-23T07:19:02.707Z,102010.55
2022-09-23T07:21:31.120Z,102005.46
2022-09-23T07:23:59.290Z,102005.39
2022-09-23T07:26:27.307Z,102005.48
2022-09-23T07:28:57.041Z,102004.85
2022-09-23T07:31:37.546Z,102003.49
2022-09-23T07:34:11.830Z,102002.49
2022-09-23T07:36:43.276Z,102001.34
2022-09-23T07:39:12.536Z,102005.44
2022-09-23T07:41:41.914Z,102007.81
2022-09-23T07:44:11.856Z,102009.65
2022-09-23T07:46:40.337Z,102009.05
2022-09-23T07:49:08.571Z,102003.20
2022-09-23T07:51:38.854Z,101998.96
2022-09-23T07:54:10.653Z,101995.95
2022-09-23T07:56:39.047Z,101995.36
2022-09-23T07:59:09.654Z,102000.95
2022-09-23T08:01:41.399Z,102000.73
2022-09-23T08:04:13.588Z,101999.55
2022-09-23T08:06:55.781Z,102002.04
2022-09-23T08:09:30.202Z,101999.97
2022-09-23T08:11:58.802Z,101997.19
2022-09-23T08:14:27.740Z,101995.64
2022-09-23T08:16:55.665Z,101994.08
2022-09-23T08:19:23.788Z,101992.86
2022-09-23T08:21:52.402Z,101988.67
2022-09-23T08:24:23.819Z,101985.38
2022-09-23T08:26:53.471Z,101984.72
2022-09-23T08:29:23.704Z,101981.42
2022-09-23T08:31:51.847Z,101979.34
2022-09-23T08:34:21.477Z,101974.11
2022-09-23T08:36:49.944Z,101971.34
2022-09-23T08:39:20.444Z,101969.95
2022-09-23T08:41:58.508Z,101968.72
2022-09-23T08:44:53.462Z,101968.38
2022-09-23T08:47:44.060Z,101973.11
2022-09-23T08:50:22.893Z,101973.64
2022-09-23T08:53:02.932Z,101977.14
2022-09-23T08:55:37.683Z,101981.52
2022-09-23T08:58:25.704Z,101981.70
2022-09-23T09:00:54.194Z,101981.00
2022-09-23T09:03:31.534Z,101977.15
2022-09-23T09:05:59.681Z,101977.33
2022-09-23T09:08:36.960Z,101971.20
2022-09-23T09:11:06.256Z,101971.38
2022-09-23T09:13:43.408Z,101967.70
2022-09-23T09:16:55.397Z,101960.00
2022-09-23T09:19:32.594Z,101955.61
2022-09-23T09:22:02.093Z,101953.86
2022-09-23T09:24:35.271Z,101952.33
2022-09-23T09:27:12.267Z,101945.48
2022-09-23T09:29:50.002Z,101946.35
2022-09-23T09:32:46.393Z,101947.92
2022-09-23T09:36:09.770Z,101946.15
2022-09-23T09:38:37.989Z,101942.44
2022-09-23T09:41:17.894Z,101942.95
2022-09-23T09:43:50.462Z,101945.20
2022-09-23T09:46:49.281Z,101945.19
2022-09-23T09:49:28.811Z,101948.33
2022-09-23T09:52:14.336Z,101946.36
2022-09-23T09:54:43.594Z,101942.99
2022-09-23T09:57:32.117Z,101938.41
2022-09-23T10:00:42.952Z,101933.64
2022-09-23T10:03:13.680Z,101928.15
2022-09-23T10:05:45.236Z,101927.09
2022-09-23T10:08:19.157Z,101925.95
2022-09-23T10:11:00.935Z,101920.27
2022-09-23T10:13:30.529Z,101917.00
2022-09-23T10:16:01.771Z,101913.89
2022-09-23T10:18:38.266Z,101910.59
2022-09-23T10:21:15.419Z,101914.17
2022-09-23T10:23:58.209Z,101915.35
2022-09-23T10:26:31.192Z,101912.89
2022-09-23T10:29:02.830Z,101912.23
2022-09-23T10:31:33.303Z,101911.92
2022-09-23T10:34:04.452Z,101911.09
2022-09-23T10:36:33.397Z,101908.85
2022-09-23T10:39:23.118Z,101907.86
2022-09-23T10:42:12.495Z,101907.57
2022-09-23T10:45:15.600Z,101907.61
2022-09-23T10:48:06.696Z,101905.38
2022-09-23T10:51:27.533Z,101906.11
2022-09-23T10:53:58.255Z,101903.19
2022-09-23T10:56:28.979Z,101899.17
2022-09-23T10:59:29.399Z,101902.52
2022-09-23T11:02:31.678Z,101905.02
2022-09-23T11:05:24.595Z,101902.94
2022-09-23T11:08:10.577Z,101898.94
2022-09-23T11:11:11.625Z,101904.94
2022-09-23T11:14:07.732Z,101904.08
2022-09-23T11:16:51.163Z,101902.49
2022-09-23T11:19:32.443Z,101898.83
2022-09-23T11:22:19.113Z,101895.49
2022-09-23T11:25:25.381Z,101895.31
2022-09-23T11:28:32.171Z,101895.30
2022-09-23T11:31:24.603Z,101890.73
2022-09-23T11:33:55.181Z,101888.61
2022-09-23T11:36:32.957Z,101890.02
2022-09-23T11:39:08.370Z,101886.48
2022-09-23T11:41:39.779Z,101882.09
2022-09-23T11:44:20.400Z,101884.00
2022-09-23T11:46:55.937Z,101880.48
2022-09-23T11:49:41.204Z,101878.52
2022-09-23T11:52:20.624Z,101876.39
2022-09-23T11:55:02.402Z,101873.21
2022-09-23T11:57:45.940Z,101871.23
2022-09-23T12:00:23.298Z,101870.66
2022-09-23T12:03:18.629Z,101868.14
2022-09-23T12:06:03.246Z,101872.63
2022-09-23T12:08:33.556Z,101870.11
2022-09-23T12:11:24.982Z,101869.89
2022-09-23T12:13:56.704Z,101869.30
2022-09-23T12:16:43.290Z,101865.40
2022-09-23T12:19:33.417Z,101870.79
2022-09-23T12:22:14.305Z,101864.39
2022-09-23T12:24:51.759Z,101858.72
2022-09-23T12:27:45.778Z,101859.05
2022-09-23T12:30:23.384Z,101856.04
2022-09-23T12:32:51.595Z,101854.25
2022-09-23T12:35:27.497Z,101853.34
2022-09-23T12:37:55.750Z,101852.80
2022-09-23T12:40:34.928Z,101851.17
2022-09-23T12:43:03.265Z,101850.95
2022-09-23T12:45:35.318Z,101847.24
2022-09-23T12:48:43.205Z,101847.05
2022-09-23T12:51:21.750Z,101842.86
2022-09-23T12:53:54.420Z,101843.23
2022-09-23T12:56:34.143Z,101840.45
2022-09-23T12:59:16.375Z,101838.70
2022-09-23T13:01:45.234Z,101835.73
2022-09-23T13:05:09.243Z,101835.94
2022-09-23T13:07:45.458Z,101829.45
2022-09-23T13:10:26.146Z,101830.14
2022-09-23T13:12:56.001Z,101828.70
2022-09-23T13:15:29.032Z,101825.86
2022-09-23T13:18:18.782Z,101829.19
2022-09-23T13:20:48.939Z,101829.18
2022-09-23T13:23:22.820Z,101823.42
2022-09-23T13:25:57.508Z,101821.86
2022-09-23T13:28:54.965Z,101820.14
2022-09-23T13:31:23.393Z,101818.95
2022-09-23T13:34:06.205Z,101817.39
2022-09-23T13:36:44.877Z,101817.78
2022-09-23T13:39:25.074Z,101814.46
2022-09-23T13:42:01.048Z,101810.05
2022-09-23T13:44:29.862Z,101805.30
2022-09-23T13:47:02.315Z,101803.52
2022-09-23T13:49:35.370Z,101804.21
2022-09-23T13:52:04.325Z,101801.38
2022-09-23T13:54:47.964Z,101802.24
2022-09-23T13:57:35.617Z,101799.07
2022-09-23T14:00:21.407Z,101799.62
2022-09-23T14:02:49.538Z,101795.23
2022-09-23T14:05:24.280Z,101793.84
2022-09-23T14:07:54.001Z,101789.98
2022-09-23T14:10:24.935Z,101790.13
2022-09-23T14:12:54.947Z,101786.59
2022-09-23T14:15:23.418Z,101783.62
2022-09-23T14:18:02.256Z,101782.77
2022-09-23T14:20:30.321Z,101783.86
2022-09-23T14:23:11.905Z,101782.65
2022-09-23T14:25:41.794Z,101784.26
2022-09-23T14:28:20.745Z,101782.34
2022-09-23T14:30:51.786Z,101783.75
2022-09-23T14:33:28.564Z,101777.96
2022-09-23T14:36:09.142Z,101780.45
2022-09-23T14:38:52.579Z,101780.16
2022-09-23T14:41:25.561Z,101773.70
2022-09-23T14:43:59.780Z,101769.34
2022-09-23T14:46:31.153Z,101767.08
2022-09-23T14:49:17.923Z,101758.15
2022-09-23T14:52:00.643Z,101760.10
2022-09-23T14:54:45.998Z,101755.20
2022-09-23T14:57:23.401Z,101754.54
2022-09-23T15:00:02.582Z,101753.34
2022-09-23T15:02:40.356Z,101752.84
2022-09-23T15:05:17.622Z,101753.36
2022-09-23T15:07:53.424Z,101751.27
2022-09-23T15:10:27.130Z,101749.90
2022-09-23T15:13:04.455Z,101747.84
2022-09-23T15:15:32.958Z,101748.21
2022-09-23T15:18:15.715Z,101749.45
2022-09-23T15:20:52.524Z,101747.35
2022-09-23T15:23:45.270Z,101744.91
2022-09-23T15:26:47.307Z,101746.70
2022-09-23T15:29:15.215Z,101741.30
2022-09-23T15:31:43.205Z,101742.36
2022-09-23T15:34:11.346Z,101740.95
2022-09-23T15:36:40.062Z,101740.45
2022-09-23T15:39:08.844Z,101738.71
2022-09-23T15:41:36.848Z,101738.58
2022-09-23T15:44:12.937Z,101739.29
2022-09-23T15:46:46.938Z,101739.27
2022-09-23T15:49:36.539Z,101735.77
2022-09-23T15:52:06.172Z,101733.51
2022-09-23T15:54:34.574Z,101729.13
2022-09-23T15:57:02.899Z,101728.27
2022-09-23T15:59:31.379Z,101726.36
2022-09-23T16:02:05.916Z,101723.23
2022-09-23T16:04:34.175Z,101725.02
2022-09-23T16:07:04.701Z,101724.66
2022-09-23T16:09:32.846Z,101720.29
2022-09-23T16:12:02.839Z,101727.85
2022-09-23T16:14:30.862Z,101729.29
2022-09-23T16:16:58.837Z,101727.04
2022-09-23T16:19:26.900Z,101729.52
2022-09-23T16:21:54.837Z,101728.50
2022-09-23T16:24:27.934Z,101735.04
2022-09-23T16:27:00.074Z,101734.90
2022-09-23T16:29:28.192Z,101734.42
2022-09-23T16:31:56.188Z,101734.98
2022-09-23T16:34:24.156Z,101736.43
2022-09-23T16:36:52.099Z,101736.46
2022-09-23T16:39:20.781Z,101733.52
2022-09-23T16:41:48.816Z,101734.77
2022-09-23T16:44:16.722Z,101731.13
2022-09-23T16:46:44.790Z,101727.66
2022-09-23T16:49:14.096Z,101729.44
2022-09-23T16:51:42.366Z,101733.34
2022-09-23T16:54:12.934Z,101731.27
2022-09-23T16:56:46.467Z,101732.88
2022-09-23T16:59:16.077Z,101732.56
2022-09-23T17:02:03.021Z,101731.72
2022-09-23T17:04:31.764Z,101731.20
2022-09-23T17:06:59.703Z,101734.72
2022-09-23T17:09:29.189Z,101732.11
2022-09-23T17:12:14.226Z,101733.88
2022-09-23T17:14:43.246Z,101731.27
2022-09-23T17:17:11.156Z,101729.54
2022-09-23T17:19:41.599Z,101726.74
2022-09-23T17:22:10.062Z,101727.29
2022-09-23T17:24:37.998Z,101727.30
2022-09-23T17:27:05.940Z,101728.52
2022-09-23T17:29:33.882Z,101722.75
2022-09-23T17:32:02.572Z,101724.34
2022-09-23T17:34:32.010Z,101721.02
2022-09-23T17:37:00.577Z,101727.66
2022-09-23T17:39:28.556Z,101723.98
2022-09-23T17:41:58.730Z,101726.79
2022-09-23T17:44:26.851Z,101732.73
2022-09-23T17:46:54.813Z,101731.15
2022-09-23T17:49:24.584Z,101729.05
2022-09-23T17:51:52.567Z,101727.13
2022-09-23T17:54:20.552Z,101726.59
2022-09-23T17:56:48.518Z,101727.45
2022-09-23T17:59:16.595Z,101730.06
2022-09-23T18:01:44.608Z,101727.42
2022-09-23T18:04:12.851Z,101727.75
2022-09-23T18:06:40.801Z,101729.30
2022-09-23T18:09:08.926Z,101724.23
2022-09-23T18:11:39.916Z,101732.61
2022-09-23T18:14:13.463Z,101730.34
2022-09-23T18:16:44.190Z,101727.54
2022-09-23T18:19:14.777Z,101730.16
2022-09-23T18:21:48.530Z,101728.75
2022-09-23T18:24:34.102Z,101724.73
2022-09-23T18:27:04.079Z,101726.30
2022-09-23T18:29:33.127Z,101723.84
2022-09-23T18:32:01.833Z,101724.18
2022-09-23T18:34:31.029Z,101730.30
2022-09-23T18:36:58.998Z,101728.72
2022-09-23T18:39:27.089Z,101731.14
2022-09-23T18:41:55.643Z,101731.66
2022-09-23T18:44:23.629Z,101727.63
2022-09-23T18:46:51.712Z,101729.70
2022-09-23T18:49:37.975Z,101729.86
2022-09-23T18:52:05.855Z,101728.63
2022-09-23T18:54:33.740Z,101727.73
2022-09-23T18:57:02.723Z,101728.58
2022-09-23T18:59:32.137Z,101728.39
2022-09-23T19:02:00.464Z,101728.37
2022-09-23T19:04:29.297Z,101729.92
2022-09-23T19:06:58.092Z,101729.21
2022-09-23T19:09:26.574Z,101730.23
2022-09-23T19:11:54.641Z,101729.51
2022-09-23T19:14:23.631Z,101731.76
2022-09-23T19:16:52.114Z,101731.38
2022-09-23T19:19:20.184Z,101729.77
2022-09-23T19:21:48.265Z,101734.27
2022-09-23T19:24:20.095Z,101732.86
2022-09-23T19:26:48.976Z,101732.48
2022-09-23T19:29:22.103Z,101735.25
2022-09-23T19:31:51.331Z,101737.33
2022-09-23T19:34:23.961Z,101736.27
2022-09-23T19:36:53.006Z,101737.29
2022-09-23T19:39:27.153Z,101737.79
2022-09-23T19:41:58.927Z,101734.44
2022-09-23T19:44:27.096Z,101732.84
2022-09-23T19:46:57.042Z,101731.58
2022-09-23T19:49:26.253Z,101734.14
2022-09-23T19:51:56.002Z,101733.04
2022-09-23T19:54:27.433Z,101731.08
2022-09-23T19:56:55.974Z,101730.70
2022-09-23T19:59:26.042Z,101730.47
2022-09-23T20:01:54.056Z,101728.52
2022-09-23T20:04:22.152Z,101729.52
2022-09-23T20:06:50.121Z,101732.27
2022-09-23T20:09:18.203Z,101726.49
2022-09-23T20:11:46.228Z,101727.00
2022-09-23T20:14:14.305Z,101727.52
2022-09-23T20:16:42.491Z,101724.00
2022-09-23T20:19:11.454Z,101720.67
2022-09-23T20:21:39.376Z,101719.08
2022-09-23T20:24:09.734Z,101718.02
2022-09-23T20:26:56.866Z,101716.96
2022-09-23T20:29:24.729Z,101715.41
2022-09-23T20:31:53.000Z,101715.61
2022-09-23T20:34:21.799Z,101714.41
2022-09-23T20:36:50.306Z,101713.38
2022-09-23T20:39:18.220Z,101711.30
2022-09-23T20:41:46.616Z,101704.34
2022-09-23T20:44:14.896Z,101706.08
2022-09-23T20:46:48.494Z,101699.09
2022-09-23T20:49:17.972Z,101701.55
2022-09-23T20:51:48.440Z,101699.29
2022-09-23T20:54:20.385Z,101701.04
2022-09-23T20:56:48.410Z,101700.70
2022-09-23T20:59:18.370Z,101701.41
2022-09-23T21:01:46.754Z,101701.42
2022-09-23T21:04:15.331Z,101700.55
2022-09-23T21:06:43.296Z,101701.77
2022-09-23T21:09:11.271Z,101702.13
2022-09-23T21:11:39.233Z,101700.03
2022-09-23T21:14:07.498Z,101701.95
2022-09-23T21:16:36.091Z,101703.69
2022-09-23T21:19:08.028Z,101705.79
2022-09-23T21:21:36.295Z,101705.09
2022-09-23T21:24:31.361Z,101703.67
2022-09-23T21:26:52.539Z,101703.31
2022-09-23T21:29:20.713Z,101700.33
2022-09-23T21:31:49.816Z,101702.74
2022-09-23T21:34:19.526Z,101704.80
2022-09-23T21:36:48.381Z,101708.94
2022-09-23T21:39:16.786Z,101712.77
2022-09-23T21:41:45.101Z,101709.61
2022-09-23T21:44:13.029Z,101710.65
2022-09-23T21:46:41.018Z,101709.42
2022-09-23T21:49:09.352Z,101706.65
2022-09-23T21:51:43.001Z,101705.59
2022-09-23T21:54:14.505Z,101704.35
2022-09-23T21:56:43.593Z,101703.30
2022-09-23T21:59:11.917Z,101702.08
2022-09-23T22:01:44.856Z,101703.84
2022-09-23T22:04:17.219Z,101702.98
2022-09-23T22:06:46.043Z,101704.20
2022-09-23T22:09:17.565Z,101703.86
2022-09-23T22:12:04.814Z,101702.84
2022-09-23T22:14:33.187Z,101703.71
2022-09-23T22:17:03.904Z,101701.80
2022-09-23T22:19:45.610Z,101695.34
2022-09-23T22:22:17.855Z,101698.83
2022-09-23T22:24:47.759Z,101696.73
2022-09-23T22:27:18.829Z,101702.84
2022-09-23T22:30:06.229Z,101697.94
2022-09-23T22:32:40.864Z,101698.29
2022-09-23T22:35:13.747Z,101696.89
2022-09-23T22:37:41.736Z,101691.66
2022-09-23T22:40:14.637Z,101691.32
2022-09-23T22:42:43.212Z,101687.31
2022-09-23T22:45:12.708Z,101683.30
2022-09-23T22:47:45.363Z,101682.42
2022-09-23T22:50:14.873Z,101681.90
2022-09-23T22:52:43.397Z,101681.02
2022-09-23T22:55:11.947Z,101681.70
2022-09-23T22:57:40.169Z,101678.55
2022-09-23T23:00:09.580Z,101677.85
2022-09-23T23:02:37.599Z,101676.96
2022-09-23T23:05:06.104Z,101679.20
2022-09-23T23:07:35.249Z,101678.15
2022-09-23T23:10:04.805Z,101676.41
2022-09-23T23:12:33.771Z,101677.63
2022-09-23T23:15:01.858Z,101675.71
2022-09-23T23:17:30.115Z,101673.79
2022-09-23T23:19:58.698Z,101671.70
2022-09-23T23:22:28.606Z,101670.98
2022-09-23T23:24:56.781Z,101672.73
2022-09-23T23:27:24.752Z,101673.42
2022-09-23T23:29:52.688Z,101669.76
2022-09-23T23:32:20.701Z,101676.20
2022-09-23T23:34:48.599Z,101675.65
2022-09-23T23:37:20.607Z,101673.36
2022-09-23T23:39:49.025Z,101669.68
2022-09-23T23:42:17.273Z,101671.59
2022-09-23T23:44:45.547Z,101672.64
2022-09-23T23:47:13.518Z,101675.26
2022-09-23T23:49:41.588Z,101672.46
2022-09-23T23:52:09.904Z,101670.02
2022-09-23T23:54:38.654Z,101669.50
2022-09-23T23:57:07.282Z,101666.35
2022-09-23T23:59:35.308Z,101664.41
